createdAt,value
2022-11-16T00:00:34.936Z,8.3
2022-11-16T00:01:34.580Z,9.4
2022-11-16T00:02:34.396Z,8.5
2022-11-16T00:03:34.426Z,7.4
2022-11-16T00:04:34.137Z,7.9
2022-11-16T00:05:34.720Z,10.5
2022-11-16T00:06:34.439Z,9.9
2022-11-16T00:07:34.575Z,7.3
2022-11-16T00:08:35.996Z,8.3
2022-11-16T00:09:34.396Z,7.0
2022-11-16T00:10:34.099Z,7.1
2022-11-16T00:11:34.103Z,8.7
2022-11-16T00:12:34.681Z,8.3
2022-11-16T00:13:34.908Z,7.9
2022-11-16T00:14:34.880Z,7.5
2022-11-16T00:15:34.122Z,7.3
2022-11-16T00:16:34.110Z,7.0
2022-11-16T00:17:34.565Z,7.5
2022-11-16T00:18:34.651Z,7.5
2022-11-16T00:19:34.226Z,7.7
2022-11-16T00:20:34.005Z,9.1
2022-11-16T00:21:34.312Z,8.3
2022-11-16T00:22:34.209Z,8.0
2022-11-16T00:23:34.912Z,8.3
2022-11-16T00:24:34.137Z,7.5
2022-11-16T00:25:33.994Z,8.2
2022-11-16T00:26:34.724Z,7.0
2022-11-16T00:27:34.509Z,9.4
2022-11-16T00:28:35.131Z,7.1
2022-11-16T00:29:34.110Z,7.6
2022-11-16T00:30:34.369Z,8.8
2022-11-16T00:31:34.179Z,6.5
2022-11-16T00:32:34.105Z,8.4
2022-11-16T00:33:35.015Z,7.2
2022-11-16T00:34:34.696Z,7.0
2022-11-16T00:35:37.551Z,7.3
2022-11-16T00:36:34.184Z,7.1
2022-11-16T00:37:34.061Z,7.7
2022-11-16T00:38:35.311Z,7.6
2022-11-16T00:39:34.696Z,6.9
2022-11-16T00:40:34.732Z,7.5
2022-11-16T00:41:34.550Z,8.0
2022-11-16T00:42:34.455Z,9.1
2022-11-16T00:43:34.482Z,6.7
2022-11-16T00:44:34.017Z,7.9
2022-11-16T00:45:34.756Z,7.3
2022-11-16T00:46:34.645Z,7.5
2022-11-16T00:47:34.697Z,7.4
2022-11-16T00:48:34.937Z,8.5
2022-11-16T00:49:34.377Z,8.2
2022-11-16T00:50:34.188Z,8.5
2022-11-16T00:51:34.606Z,9.8
2022-11-16T00:52:34.754Z,8.3
2022-11-16T00:53:34.878Z,8.3
2022-11-16T00:54:34.468Z,7.6
2022-11-16T00:55:34.216Z,8.4
2022-11-16T00:56:34.223Z,8.1
2022-11-16T00:57:34.767Z,6.9
2022-11-16T00:58:34.835Z,7.0
2022-11-16T00:59:34.342Z,7.1
2022-11-16T01:00:34.160Z,6.7
2022-11-16T01:01:33.974Z,8.1
2022-11-16T01:02:34.718Z,7.9
2022-11-16T01:03:35.117Z,6.4
2022-11-16T01:04:34.346Z,8.3
2022-11-16T01:05:34.220Z,8.3
2022-11-16T01:06:34.004Z,7.6
2022-11-16T01:07:35.667Z,7.5
2022-11-16T01:08:35.513Z,7.6
2022-11-16T01:09:34.653Z,7.7
2022-11-16T01:10:34.563Z,7.9
2022-11-16T01:11:34.327Z,8.5
2022-11-16T01:12:34.834Z,8.0
2022-11-16T01:13:34.046Z,7.7
2022-11-16T01:14:38.233Z,7.8
2022-11-16T01:15:33.911Z,7.2
2022-11-16T01:16:34.677Z,6.3
2022-11-16T01:17:35.037Z,5.8
2022-11-16T01:18:34.474Z,6.1
2022-11-16T01:19:34.266Z,7.8
2022-11-16T01:20:34.769Z,6.5
2022-11-16T01:21:34.621Z,6.9
2022-11-16T01:22:34.658Z,8.7
2022-11-16T01:23:34.312Z,7.7
2022-11-16T01:24:34.077Z,7.6
2022-11-16T01:25:34.713Z,6.9
2022-11-16T01:26:34.085Z,7.7
2022-11-16T01:27:34.013Z,7.9
2022-11-16T01:28:34.814Z,6.7
2022-11-16T01:29:34.787Z,7.3
2022-11-16T01:30:34.189Z,8.0
2022-11-16T01:31:34.027Z,8.2
2022-11-16T01:32:34.660Z,7.1
2022-11-16T01:33:34.098Z,8.3
2022-11-16T01:34:34.887Z,8.7
2022-11-16T01:35:34.571Z,8.0
2022-11-16T01:36:34.439Z,7.4
2022-11-16T01:37:34.215Z,6.8
2022-11-16T01:38:34.552Z,8.0
2022-11-16T01:39:35.149Z,6.9
2022-11-16T01:40:34.475Z,6.4
2022-11-16T01:41:34.294Z,7.9
2022-11-16T01:42:34.154Z,6.2
2022-11-16T01:43:38.845Z,7.3
2022-11-16T01:44:39.598Z,5.9
2022-11-16T01:45:36.990Z,6.9
2022-11-16T01:46:34.401Z,5.8
2022-11-16T01:47:34.135Z,6.6
2022-11-16T01:48:34.410Z,5.6
2022-11-16T01:49:35.933Z,6.0
2022-11-16T01:50:34.724Z,6.4
2022-11-16T01:51:34.318Z,6.9
2022-11-16T01:52:35.244Z,8.4
2022-11-16T01:53:35.657Z,6.8
2022-11-16T01:54:36.410Z,6.5
2022-11-16T01:55:36.067Z,8.6
2022-11-16T01:56:35.116Z,8.5
2022-11-16T01:57:36.958Z,7.0
2022-11-16T01:58:35.406Z,7.5
2022-11-16T01:59:35.053Z,7.0
2022-11-16T02:00:34.307Z,5.4
2022-11-16T02:01:34.192Z,6.0
2022-11-16T02:02:33.921Z,6.6
2022-11-16T02:03:36.348Z,6.4
2022-11-16T02:04:34.466Z,7.0
2022-11-16T02:05:41.894Z,7.2
2022-11-16T02:06:42.363Z,6.7
2022-11-16T02:07:50.857Z,6.5
2022-11-16T02:08:38.998Z,7.1
2022-11-16T02:09:47.348Z,6.8
2022-11-16T02:10:39.509Z,7.2
2022-11-16T02:11:39.331Z,9.2
2022-11-16T02:12:44.849Z,9.1
2022-11-16T02:13:38.950Z,7.6
2022-11-16T02:14:51.345Z,7.8
2022-11-16T02:15:47.844Z,7.8
2022-11-16T02:16:38.841Z,7.6
2022-11-16T02:17:39.000Z,6.8
2022-11-16T02:18:44.851Z,6.3
2022-11-16T02:19:41.875Z,7.6
2022-11-16T02:20:38.983Z,8.0
2022-11-16T02:21:47.414Z,7.2
2022-11-16T02:22:52.836Z,8.0
2022-11-16T02:23:52.286Z,5.5
2022-11-16T02:24:47.875Z,6.6
2022-11-16T02:25:38.871Z,5.6
2022-11-16T02:26:48.617Z,6.4
2022-11-16T02:27:51.361Z,7.2
2022-11-16T02:28:41.923Z,7.5
2022-11-16T02:29:40.420Z,6.8
2022-11-16T02:30:35.670Z,7.0
2022-11-16T02:31:39.517Z,6.0
2022-11-16T02:32:40.151Z,6.4
2022-11-16T02:33:36.277Z,6.4
2022-11-16T02:34:37.342Z,7.2
2022-11-16T02:35:41.357Z,6.9
2022-11-16T02:36:35.945Z,7.0
2022-11-16T02:37:35.514Z,6.8
2022-11-16T02:38:36.434Z,9.0
2022-11-16T02:39:35.976Z,6.7
2022-11-16T02:40:35.939Z,5.9
2022-11-16T02:41:36.131Z,7.4
2022-11-16T02:42:37.727Z,7.2
2022-11-16T02:43:35.606Z,7.4
2022-11-16T02:44:35.750Z,6.3
2022-11-16T02:45:37.694Z,6.6
2022-11-16T02:46:38.271Z,8.0
2022-11-16T02:47:34.670Z,7.1
2022-11-16T02:48:36.611Z,7.8
2022-11-16T02:49:35.687Z,6.1
2022-11-16T02:50:34.737Z,7.0
2022-11-16T02:51:35.534Z,6.5
2022-11-16T02:52:35.957Z,7.0
2022-11-16T02:53:40.342Z,6.0
2022-11-16T02:54:34.330Z,6.6
2022-11-16T02:55:35.237Z,7.9
2022-11-16T02:56:44.362Z,6.9
2022-11-16T02:57:39.152Z,7.2
2022-11-16T02:58:34.664Z,5.6
2022-11-16T02:59:42.219Z,6.5
2022-11-16T03:00:50.253Z,5.3
2022-11-16T03:01:35.886Z,7.2
2022-11-16T03:02:50.228Z,7.5
2022-11-16T03:03:47.363Z,8.0
2022-11-16T03:04:39.518Z,6.4
2022-11-16T03:05:39.316Z,6.4
2022-11-16T03:06:36.452Z,6.6
2022-11-16T03:07:37.628Z,6.4
2022-11-16T03:08:35.703Z,5.5
2022-11-16T03:09:35.912Z,6.7
2022-11-16T03:10:38.291Z,7.2
2022-11-16T03:11:35.190Z,6.3
2022-11-16T03:12:34.717Z,6.1
2022-11-16T03:13:36.193Z,6.6
2022-11-16T03:14:39.424Z,6.9
2022-11-16T03:15:36.909Z,6.3
2022-11-16T03:16:35.865Z,6.1
2022-11-16T03:17:41.875Z,5.9
2022-11-16T03:18:35.406Z,7.4
2022-11-16T03:19:41.864Z,6.2
2022-11-16T03:20:34.868Z,6.6
2022-11-16T03:21:46.131Z,6.8
2022-11-16T03:22:50.435Z,7.1
2022-11-16T03:23:34.172Z,6.9
2022-11-16T03:24:34.025Z,6.6
2022-11-16T03:25:47.274Z,6.0
2022-11-16T03:26:44.860Z,6.9
2022-11-16T03:27:41.860Z,6.9
2022-11-16T03:28:39.000Z,5.9
2022-11-16T03:29:41.438Z,7.7
2022-11-16T03:30:39.988Z,7.8
2022-11-16T03:31:38.428Z,5.8
2022-11-16T03:32:39.108Z,5.1
2022-11-16T03:33:36.744Z,5.8
2022-11-16T03:34:35.145Z,6.8
2022-11-16T03:35:37.572Z,6.0
2022-11-16T03:36:35.637Z,7.0
2022-11-16T03:37:34.689Z,7.4
2022-11-16T03:38:35.605Z,6.8
2022-11-16T03:39:36.344Z,5.5
2022-11-16T03:40:35.359Z,6.9
2022-11-16T03:41:35.780Z,7.8
2022-11-16T03:42:34.756Z,7.2
2022-11-16T03:43:34.263Z,6.4
2022-11-16T03:44:35.771Z,8.8
2022-11-16T03:45:40.174Z,7.1
2022-11-16T03:46:34.378Z,6.4
2022-11-16T03:47:34.183Z,6.6
2022-11-16T03:48:35.699Z,7.1
2022-11-16T03:49:34.659Z,7.1
2022-11-16T03:50:34.042Z,5.5
2022-11-16T03:51:34.959Z,7.5
2022-11-16T03:52:34.369Z,7.0
2022-11-16T03:53:33.921Z,8.3
2022-11-16T03:54:34.532Z,6.7
2022-11-16T03:55:34.372Z,8.0
2022-11-16T03:56:34.175Z,6.4
2022-11-16T03:57:34.049Z,7.2
2022-11-16T03:58:35.092Z,6.4
2022-11-16T03:59:34.527Z,6.0
2022-11-16T04:00:34.412Z,6.9
2022-11-16T04:01:34.172Z,6.0
2022-11-16T04:02:34.011Z,6.0
2022-11-16T04:03:34.669Z,5.4
2022-11-16T04:04:34.455Z,6.7
2022-11-16T04:05:34.297Z,7.4
2022-11-16T04:06:34.072Z,5.7
2022-11-16T04:07:34.117Z,6.7
2022-11-16T04:08:35.020Z,7.2
2022-11-16T04:09:34.498Z,7.0
2022-11-16T04:10:34.325Z,6.2
2022-11-16T04:11:34.937Z,5.7
2022-11-16T04:12:33.894Z,6.8
2022-11-16T04:13:34.874Z,7.7
2022-11-16T04:14:34.429Z,5.8
2022-11-16T04:15:34.214Z,7.4
2022-11-16T04:16:34.496Z,6.6
2022-11-16T04:17:34.246Z,5.6
2022-11-16T04:18:34.597Z,6.5
2022-11-16T04:19:33.914Z,5.9
2022-11-16T04:20:34.637Z,6.1
2022-11-16T04:21:36.812Z,6.9
2022-11-16T04:22:39.116Z,5.7
2022-11-16T04:23:34.060Z,6.5
2022-11-16T04:24:35.872Z,6.4
2022-11-16T04:25:36.272Z,6.1
2022-11-16T04:26:34.427Z,6.2
2022-11-16T04:27:34.191Z,6.9
2022-11-16T04:28:34.636Z,6.0
2022-11-16T04:29:34.910Z,6.2
2022-11-16T04:30:35.348Z,5.7
2022-11-16T04:31:34.362Z,6.6
2022-11-16T04:32:34.162Z,6.1
2022-11-16T04:33:34.101Z,7.1
2022-11-16T04:34:34.628Z,5.4
2022-11-16T04:35:34.450Z,7.0
2022-11-16T04:36:34.330Z,6.1
2022-11-16T04:37:34.053Z,7.1
2022-11-16T04:38:34.263Z,6.2
2022-11-16T04:39:34.647Z,5.7
2022-11-16T04:40:34.443Z,7.8
2022-11-16T04:41:34.306Z,7.6
2022-11-16T04:42:34.080Z,6.0
2022-11-16T04:43:34.694Z,5.4
2022-11-16T04:44:35.240Z,5.1
2022-11-16T04:45:34.334Z,4.8
2022-11-16T04:46:34.142Z,6.6
2022-11-16T04:47:33.995Z,6.2
2022-11-16T04:48:35.112Z,7.9
2022-11-16T04:49:34.492Z,6.1
2022-11-16T04:50:34.719Z,5.9
2022-11-16T04:51:34.127Z,6.0
2022-11-16T04:52:33.953Z,5.9
2022-11-16T04:53:34.184Z,6.9
2022-11-16T04:54:34.022Z,6.2
2022-11-16T04:55:34.940Z,6.9
2022-11-16T04:56:34.537Z,7.0
2022-11-16T04:57:34.306Z,5.1
2022-11-16T04:58:34.516Z,5.7
2022-11-16T04:59:33.883Z,5.9
2022-11-16T05:00:34.622Z,6.3
2022-11-16T05:01:34.098Z,7.0
2022-11-16T05:02:34.750Z,5.9
2022-11-16T05:03:34.473Z,7.1
2022-11-16T05:04:35.162Z,5.4
2022-11-16T05:05:34.102Z,5.4
2022-11-16T05:06:34.073Z,6.2
2022-11-16T05:07:34.945Z,6.2
2022-11-16T05:08:34.841Z,6.3
2022-11-16T05:09:34.234Z,5.8
2022-11-16T05:10:34.038Z,7.3
2022-11-16T05:11:34.752Z,7.0
2022-11-16T05:12:34.880Z,6.7
2022-11-16T05:13:34.426Z,5.8
2022-11-16T05:14:34.229Z,6.3
2022-11-16T05:15:34.024Z,5.9
2022-11-16T05:16:34.712Z,8.3
2022-11-16T05:17:34.516Z,6.0
2022-11-16T05:18:35.290Z,6.1
2022-11-16T05:19:34.366Z,5.8
2022-11-16T05:20:33.951Z,6.9
2022-11-16T05:21:34.708Z,5.8
2022-11-16T05:22:34.723Z,5.3
2022-11-16T05:23:34.324Z,6.1
2022-11-16T05:24:34.178Z,4.9
2022-11-16T05:25:36.794Z,5.5
2022-11-16T05:26:34.611Z,6.1
2022-11-16T05:27:34.812Z,5.2
2022-11-16T05:28:34.583Z,5.7
2022-11-16T05:29:34.064Z,6.2
2022-11-16T05:30:33.879Z,6.1
2022-11-16T05:31:40.122Z,5.7
2022-11-16T05:32:34.403Z,5.3
2022-11-16T05:33:34.266Z,5.5
2022-11-16T05:34:34.135Z,6.5
2022-11-16T05:35:34.719Z,6.4
2022-11-16T05:36:34.510Z,5.5
2022-11-16T05:37:34.348Z,7.7
2022-11-16T05:38:34.542Z,7.1
2022-11-16T05:39:34.192Z,5.7
2022-11-16T05:40:34.665Z,6.1
2022-11-16T05:41:34.915Z,5.0
2022-11-16T05:42:34.280Z,4.6
2022-11-16T05:43:34.094Z,6.0
2022-11-16T05:44:34.003Z,5.9
2022-11-16T05:45:34.692Z,5.6
2022-11-16T05:46:33.959Z,5.1
2022-11-16T05:47:34.727Z,5.9
2022-11-16T05:48:34.838Z,6.8
2022-11-16T05:49:34.416Z,5.6
2022-11-16T05:50:37.344Z,5.4
2022-11-16T05:51:34.713Z,6.3
2022-11-16T05:52:34.606Z,6.2
2022-11-16T05:53:34.425Z,5.2
2022-11-16T05:54:34.309Z,5.4
2022-11-16T05:55:34.723Z,5.8
2022-11-16T05:56:34.881Z,5.2
2022-11-16T05:57:34.619Z,5.3
2022-11-16T05:58:34.721Z,5.6
2022-11-16T05:59:34.245Z,6.1
2022-11-16T06:00:34.183Z,5.0
2022-11-16T06:01:34.682Z,5.6
2022-11-16T06:02:34.543Z,6.6
2022-11-16T06:03:34.564Z,5.4
2022-11-16T06:04:34.127Z,5.8
2022-11-16T06:05:40.044Z,5.5
2022-11-16T06:06:34.932Z,5.8
2022-11-16T06:07:34.650Z,5.4
2022-11-16T06:08:34.748Z,5.4
2022-11-16T06:09:34.135Z,6.3
2022-11-16T06:10:33.962Z,5.8
2022-11-16T06:11:36.212Z,6.3
2022-11-16T06:12:34.372Z,6.5
2022-11-16T06:13:34.920Z,6.2
2022-11-16T06:14:34.023Z,4.9
2022-11-16T06:15:37.686Z,5.8
2022-11-16T06:16:34.583Z,5.6
2022-11-16T06:17:34.411Z,4.8
2022-11-16T06:18:40.857Z,4.9
2022-11-16T06:19:34.032Z,6.5
2022-11-16T06:20:36.479Z,5.5
2022-11-16T06:21:34.678Z,5.0
2022-11-16T06:22:34.277Z,6.1
2022-11-16T06:23:34.198Z,6.0
2022-11-16T06:24:33.923Z,5.0
2022-11-16T06:25:37.208Z,5.6
2022-11-16T06:26:34.631Z,6.4
2022-11-16T06:27:34.286Z,5.7
2022-11-16T06:28:34.510Z,5.5
2022-11-16T06:29:33.895Z,7.0
2022-11-16T06:30:34.562Z,4.9
2022-11-16T06:31:34.435Z,5.9
2022-11-16T06:32:34.675Z,6.4
2022-11-16T06:33:34.420Z,6.7
2022-11-16T06:34:34.211Z,5.1
2022-11-16T06:35:34.038Z,5.7
2022-11-16T06:36:34.785Z,5.5
2022-11-16T06:37:34.641Z,4.8
2022-11-16T06:38:34.566Z,5.3
2022-11-16T06:39:34.169Z,6.9
2022-11-16T06:40:34.073Z,5.6
2022-11-16T06:41:38.827Z,6.0
2022-11-16T06:42:34.578Z,6.8
2022-11-16T06:43:34.275Z,5.1
2022-11-16T06:44:34.076Z,4.9
2022-11-16T06:45:33.879Z,5.3
2022-11-16T06:46:34.665Z,5.1
2022-11-16T06:47:34.469Z,5.6
2022-11-16T06:48:34.714Z,4.6
2022-11-16T06:49:34.049Z,6.0
2022-11-16T06:50:33.939Z,6.0
2022-11-16T06:51:34.534Z,6.2
2022-11-16T06:52:34.377Z,6.0
2022-11-16T06:53:34.281Z,5.9
2022-11-16T06:54:34.041Z,6.4
2022-11-16T06:55:34.737Z,5.8
2022-11-16T06:56:34.542Z,3.9
2022-11-16T06:57:34.346Z,5.8
2022-11-16T06:58:34.502Z,5.0
2022-11-16T06:59:34.081Z,5.0
2022-11-16T07:00:35.088Z,5.3
2022-11-16T07:01:34.804Z,6.2
2022-11-16T07:02:37.748Z,6.6
2022-11-16T07:03:34.550Z,4.4
2022-11-16T07:04:34.331Z,5.9
2022-11-16T07:05:37.571Z,6.4
2022-11-16T07:06:34.065Z,6.0
2022-11-16T07:07:34.291Z,6.3
2022-11-16T07:08:34.413Z,5.3
2022-11-16T07:09:34.770Z,5.0
2022-11-16T07:10:35.059Z,4.8
2022-11-16T07:11:34.744Z,5.6
2022-11-16T07:12:34.213Z,8.0
2022-11-16T07:13:35.111Z,6.2
2022-11-16T07:14:34.709Z,7.3
2022-11-16T07:15:34.547Z,4.8
2022-11-16T07:16:34.838Z,5.9
2022-11-16T07:17:34.103Z,7.2
2022-11-16T07:18:37.598Z,6.9
2022-11-16T07:19:34.644Z,7.3
2022-11-16T07:20:36.167Z,8.8
2022-11-16T07:21:34.291Z,10.7
2022-11-16T07:22:34.527Z,8.7
2022-11-16T07:23:34.633Z,8.3
2022-11-16T07:24:34.144Z,6.6
2022-11-16T07:25:33.983Z,8.9
2022-11-16T07:26:35.012Z,7.8
2022-11-16T07:27:34.432Z,6.5
2022-11-16T07:28:34.895Z,6.1
2022-11-16T07:29:34.106Z,7.5
2022-11-16T07:30:33.880Z,7.7
2022-11-16T07:31:34.136Z,7.1
2022-11-16T07:32:33.962Z,6.8
2022-11-16T07:33:34.810Z,7.6
2022-11-16T07:34:34.485Z,6.5
2022-11-16T07:35:34.273Z,5.9
2022-11-16T07:36:34.103Z,6.7
2022-11-16T07:37:33.940Z,6.9
2022-11-16T07:38:35.322Z,5.8
2022-11-16T07:39:34.367Z,6.6
2022-11-16T07:40:34.201Z,6.0
2022-11-16T07:41:34.002Z,6.0
2022-11-16T07:42:34.921Z,6.0
2022-11-16T07:43:34.392Z,7.3
2022-11-16T07:44:34.759Z,5.7
2022-11-16T07:45:34.593Z,5.9
2022-11-16T07:46:47.771Z,6.5
2022-11-16T07:47:34.839Z,5.5
2022-11-16T07:48:34.291Z,5.8
2022-11-16T07:49:34.706Z,6.4
2022-11-16T07:50:35.202Z,6.9
2022-11-16T07:51:34.382Z,7.2
2022-11-16T07:52:34.190Z,6.5
2022-11-16T07:53:34.684Z,7.4
2022-11-16T07:54:34.782Z,6.7
2022-11-16T07:55:34.498Z,7.7
2022-11-16T07:56:34.313Z,7.4
2022-11-16T07:57:34.146Z,6.0
2022-11-16T07:58:34.888Z,7.4
2022-11-16T07:59:34.586Z,5.0
2022-11-16T08:00:34.390Z,6.5
2022-11-16T08:01:34.432Z,6.7
2022-11-16T08:02:34.086Z,5.2
2022-11-16T08:03:34.830Z,7.0
2022-11-16T08:04:34.597Z,6.3
2022-11-16T08:05:34.382Z,5.7
2022-11-16T08:06:34.221Z,5.1
2022-11-16T08:07:34.096Z,5.7
2022-11-16T08:08:35.132Z,5.2
2022-11-16T08:09:34.515Z,6.1
2022-11-16T08:10:34.370Z,6.3
2022-11-16T08:11:34.107Z,6.1
2022-11-16T08:12:33.963Z,5.9
2022-11-16T08:13:35.525Z,6.5
2022-11-16T08:14:34.580Z,4.6
2022-11-16T08:15:34.312Z,6.4
2022-11-16T08:16:34.117Z,5.6
2022-11-16T08:17:33.916Z,5.4
2022-11-16T08:18:35.527Z,6.1
2022-11-16T08:19:35.258Z,5.1
2022-11-16T08:20:34.206Z,6.6
2022-11-16T08:21:34.000Z,5.2
2022-11-16T08:22:34.729Z,7.4
2022-11-16T08:23:34.588Z,5.7
2022-11-16T08:24:34.493Z,4.6
2022-11-16T08:25:34.197Z,6.2
2022-11-16T08:26:34.104Z,5.9
2022-11-16T08:27:34.690Z,5.4
2022-11-16T08:28:35.647Z,4.0
2022-11-16T08:29:34.267Z,5.6
2022-11-16T08:30:34.275Z,6.6
2022-11-16T08:31:34.366Z,7.6
2022-11-16T08:32:34.305Z,5.5
2022-11-16T08:33:33.962Z,7.0
2022-11-16T08:34:34.686Z,6.0
2022-11-16T08:35:34.963Z,6.8
2022-11-16T08:36:34.334Z,5.6
2022-11-16T08:37:34.208Z,4.7
2022-11-16T08:38:34.201Z,5.8
2022-11-16T08:39:34.577Z,6.5
2022-11-16T08:40:34.493Z,5.1
2022-11-16T08:41:34.265Z,6.7
2022-11-16T08:42:34.056Z,6.1
2022-11-16T08:43:34.803Z,5.7
2022-11-16T08:44:34.572Z,6.4
2022-11-16T08:45:34.436Z,4.5
2022-11-16T08:46:34.319Z,5.1
2022-11-16T08:47:34.143Z,5.6
2022-11-16T08:48:35.436Z,4.8
2022-11-16T08:49:34.535Z,4.4
2022-11-16T08:50:55.424Z,4.1
2022-11-16T08:51:34.163Z,6.8
2022-11-16T08:52:34.118Z,6.9
2022-11-16T08:53:34.733Z,5.9
2022-11-16T08:54:34.505Z,6.0
2022-11-16T08:55:34.325Z,5.1
2022-11-16T08:56:34.191Z,6.2
2022-11-16T08:57:33.991Z,5.0
2022-11-16T08:58:37.778Z,5.3
2022-11-16T08:59:34.452Z,4.8
2022-11-16T09:00:34.320Z,4.7
2022-11-16T09:01:34.083Z,6.1
2022-11-16T09:02:34.803Z,5.5
2022-11-16T09:03:34.773Z,5.4
2022-11-16T09:04:37.072Z,4.5
2022-11-16T09:05:34.170Z,6.2
2022-11-16T09:06:34.660Z,6.6
2022-11-16T09:07:34.429Z,5.9
2022-11-16T09:08:35.341Z,6.6
2022-11-16T09:09:35.319Z,6.5
2022-11-16T09:10:36.227Z,5.6
2022-11-16T09:11:34.332Z,8.1
2022-11-16T09:12:34.377Z,5.7
2022-11-16T09:13:33.985Z,4.6
2022-11-16T09:14:34.164Z,6.3
2022-11-16T09:15:34.044Z,5.9
2022-11-16T09:16:34.750Z,4.9
2022-11-16T09:17:34.596Z,5.3
2022-11-16T09:18:34.736Z,6.2
2022-11-16T09:19:34.162Z,5.1
2022-11-16T09:20:33.962Z,5.3
2022-11-16T09:21:34.620Z,4.7
2022-11-16T09:22:34.459Z,5.5
2022-11-16T09:23:34.275Z,5.4
2022-11-16T09:24:34.029Z,6.0
2022-11-16T09:25:34.756Z,6.2
2022-11-16T09:26:34.594Z,6.2
2022-11-16T09:27:34.411Z,5.0
2022-11-16T09:28:34.751Z,5.4
2022-11-16T09:29:34.052Z,4.8
2022-11-16T09:30:34.698Z,6.0
2022-11-16T09:31:34.513Z,5.1
2022-11-16T09:32:34.386Z,5.7
2022-11-16T09:33:34.373Z,5.3
2022-11-16T09:34:34.223Z,5.7
2022-11-16T09:35:34.948Z,5.9
2022-11-16T09:36:34.526Z,4.9
2022-11-16T09:37:34.360Z,6.4
2022-11-16T09:38:40.619Z,4.9
2022-11-16T09:39:33.916Z,5.2
2022-11-16T09:40:36.714Z,5.6
2022-11-16T09:41:56.875Z,5.8
2022-11-16T09:42:41.866Z,5.5
2022-11-16T09:43:53.918Z,6.2
2022-11-16T09:44:39.641Z,5.1
2022-11-16T09:45:45.359Z,5.2
2022-11-16T09:46:44.875Z,5.6
2022-11-16T09:47:48.187Z,6.5
2022-11-16T09:48:35.200Z,4.7
2022-11-16T09:49:39.616Z,5.1
2022-11-16T09:50:45.796Z,5.6
2022-11-16T09:51:36.453Z,5.2
2022-11-16T09:52:38.161Z,5.6
2022-11-16T09:53:39.304Z,5.1
2022-11-16T09:54:37.792Z,5.4
2022-11-16T09:55:36.967Z,4.8
2022-11-16T09:56:38.356Z,6.3
2022-11-16T09:57:36.303Z,5.4
2022-11-16T09:58:39.662Z,5.1
2022-11-16T09:59:41.971Z,5.2
2022-11-16T10:00:34.852Z,5.7
2022-11-16T10:01:49.126Z,4.8
2022-11-16T10:02:37.945Z,5.5
2022-11-16T10:03:39.224Z,5.0
2022-11-16T10:04:41.480Z,6.0
2022-11-16T10:05:41.942Z,5.0
2022-11-16T10:06:41.859Z,5.4
2022-11-16T10:07:41.117Z,5.5
2022-11-16T10:08:39.599Z,6.0
2022-11-16T10:09:35.040Z,5.6
2022-11-16T10:10:38.194Z,5.4
2022-11-16T10:11:53.869Z,5.9
2022-11-16T10:12:50.374Z,4.8
2022-11-16T10:13:39.552Z,4.4
2022-11-16T10:14:41.890Z,4.3
2022-11-16T10:15:39.197Z,4.3
2022-11-16T10:16:37.171Z,5.6
2022-11-16T10:17:44.381Z,5.8
2022-11-16T10:18:42.390Z,5.4
2022-11-16T10:19:50.893Z,6.4
2022-11-16T10:20:41.974Z,5.5
2022-11-16T10:21:38.977Z,7.0
2022-11-16T10:22:47.390Z,5.6
2022-11-16T10:23:54.385Z,5.8
2022-11-16T10:24:41.877Z,6.3
2022-11-16T10:25:41.228Z,5.9
2022-11-16T10:26:38.963Z,6.0
2022-11-16T10:27:42.399Z,5.4
2022-11-16T10:28:39.417Z,5.1
2022-11-16T10:29:47.265Z,5.3
2022-11-16T10:30:38.874Z,4.9
2022-11-16T10:31:41.964Z,5.3
2022-11-16T10:32:38.456Z,4.9
2022-11-16T10:33:35.759Z,5.9
2022-11-16T10:34:39.148Z,4.5
2022-11-16T10:35:37.669Z,5.3
2022-11-16T10:36:35.086Z,5.9
2022-11-16T10:37:36.642Z,5.2
2022-11-16T10:38:34.464Z,5.7
2022-11-16T10:39:34.783Z,6.4
2022-11-16T10:40:38.235Z,5.7
2022-11-16T10:41:40.002Z,4.9
2022-11-16T10:42:35.663Z,5.3
2022-11-16T10:43:34.764Z,4.8
2022-11-16T10:44:38.534Z,6.0
2022-11-16T10:45:44.421Z,4.9
2022-11-16T10:46:41.193Z,5.5
2022-11-16T10:47:39.176Z,3.6
2022-11-16T10:48:52.310Z,5.2
2022-11-16T10:49:36.556Z,5.3
2022-11-16T10:50:43.003Z,4.6
2022-11-16T10:51:34.563Z,5.3
2022-11-16T10:52:36.077Z,4.9
2022-11-16T10:53:39.076Z,5.1
2022-11-16T10:54:34.480Z,6.1
2022-11-16T10:55:34.723Z,6.6
2022-11-16T10:56:34.580Z,5.4
2022-11-16T10:57:53.043Z,7.0
2022-11-16T10:58:50.375Z,5.1
2022-11-16T10:59:44.387Z,5.6
2022-11-16T11:00:39.274Z,4.1
2022-11-16T11:01:44.899Z,4.9
2022-11-16T11:02:34.891Z,4.9
2022-11-16T11:03:34.538Z,4.9
2022-11-16T11:04:34.781Z,5.0
2022-11-16T11:05:34.823Z,5.3
2022-11-16T11:06:34.395Z,6.5
2022-11-16T11:07:38.257Z,4.2
2022-11-16T11:08:34.040Z,4.8
2022-11-16T11:09:35.808Z,3.9
2022-11-16T11:10:39.122Z,5.4
2022-11-16T11:11:34.357Z,4.3
2022-11-16T11:12:34.156Z,4.6
2022-11-16T11:13:34.280Z,4.9
2022-11-16T11:14:34.634Z,5.5
2022-11-16T11:15:34.564Z,5.4
2022-11-16T11:16:34.403Z,4.6
2022-11-16T11:17:34.821Z,4.8
2022-11-16T11:18:34.777Z,4.7
2022-11-16T11:19:34.639Z,4.3
2022-11-16T11:20:34.507Z,5.6
2022-11-16T11:21:34.208Z,5.1
2022-11-16T11:22:38.891Z,4.6
2022-11-16T11:23:45.806Z,4.4
2022-11-16T11:24:44.379Z,7.2
2022-11-16T11:25:35.444Z,4.8
2022-11-16T11:26:37.140Z,6.0
2022-11-16T11:27:34.411Z,5.1
2022-11-16T11:28:37.131Z,5.0
2022-11-16T11:29:35.492Z,3.8
2022-11-16T11:30:34.578Z,6.0
2022-11-16T11:31:37.817Z,4.4
2022-11-16T11:32:37.599Z,5.2
2022-11-16T11:33:36.755Z,4.1
2022-11-16T11:34:39.209Z,4.2
2022-11-16T11:35:34.607Z,4.3
2022-11-16T11:36:36.590Z,6.1
2022-11-16T11:37:36.316Z,4.3
2022-11-16T11:38:34.422Z,4.6
2022-11-16T11:39:34.820Z,3.5
2022-11-16T11:40:34.658Z,4.6
2022-11-16T11:41:38.359Z,5.4
2022-11-16T11:42:34.594Z,4.3
2022-11-16T11:43:34.378Z,3.5
2022-11-16T11:44:42.403Z,4.4
2022-11-16T11:45:39.452Z,3.8
2022-11-16T11:47:11.020Z,3.9
2022-11-16T11:47:58.488Z,5.9
2022-11-16T11:48:41.407Z,5.1
2022-11-16T11:49:37.277Z,4.2
2022-11-16T11:50:42.392Z,4.2
2022-11-16T11:51:35.799Z,4.6
2022-11-16T11:52:41.196Z,4.8
2022-11-16T11:53:55.722Z,5.6
2022-11-16T11:54:41.673Z,4.2
2022-11-16T11:55:34.566Z,3.9
2022-11-16T11:56:34.296Z,4.1
2022-11-16T11:57:41.700Z,4.1
2022-11-16T11:58:37.564Z,4.4
2022-11-16T11:59:34.721Z,6.3
2022-11-16T12:00:39.360Z,5.5
2022-11-16T12:01:41.896Z,3.3
2022-11-16T12:02:50.952Z,4.4
2022-11-16T12:03:39.563Z,3.6
2022-11-16T12:04:44.900Z,4.4
2022-11-16T12:05:53.994Z,4.8
2022-11-16T12:06:44.065Z,4.5
2022-11-16T12:07:38.883Z,3.8
2022-11-16T12:08:51.409Z,4.3
2022-11-16T12:09:49.375Z,4.8
2022-11-16T12:10:39.607Z,5.2
2022-11-16T12:11:48.404Z,3.6
2022-11-16T12:12:38.745Z,5.3
2022-11-16T12:13:39.509Z,4.2
2022-11-16T12:14:52.349Z,4.6
2022-11-16T12:15:41.898Z,3.9
2022-11-16T12:16:48.019Z,4.9
2022-11-16T12:17:50.407Z,5.1
2022-11-16T12:18:52.353Z,6.1
2022-11-16T12:19:38.802Z,4.3
2022-11-16T12:20:41.936Z,4.8
2022-11-16T12:21:52.398Z,5.0
2022-11-16T12:22:39.104Z,4.7
2022-11-16T12:23:38.307Z,4.4
2022-11-16T12:24:54.512Z,4.8
2022-11-16T12:25:39.425Z,5.0
2022-11-16T12:26:53.963Z,4.5
2022-11-16T12:27:39.008Z,4.2
2022-11-16T12:28:49.856Z,4.9
2022-11-16T12:29:48.410Z,4.1
2022-11-16T12:30:39.420Z,4.0
2022-11-16T12:31:53.948Z,4.6
2022-11-16T12:32:44.840Z,6.1
2022-11-16T12:33:38.842Z,4.2
2022-11-16T12:34:54.439Z,5.6
2022-11-16T12:35:41.922Z,4.1
2022-11-16T12:36:39.148Z,4.7
2022-11-16T12:37:53.778Z,4.3
2022-11-16T12:38:38.768Z,2.4
2022-11-16T12:39:39.491Z,5.0
2022-11-16T12:40:52.341Z,5.0
2022-11-16T12:41:41.907Z,4.5
2022-11-16T12:42:38.987Z,4.3
2022-11-16T12:43:52.865Z,5.1
2022-11-16T12:44:48.453Z,4.3
2022-11-16T12:45:47.925Z,3.9
2022-11-16T12:46:39.065Z,4.9
2022-11-16T12:47:51.876Z,4.8
2022-11-16T12:48:39.628Z,4.8
2022-11-16T12:49:51.424Z,5.0
2022-11-16T12:50:41.947Z,4.5
2022-11-16T12:51:50.910Z,5.0
2022-11-16T12:52:51.891Z,5.2
2022-11-16T12:53:39.540Z,5.3
2022-11-16T12:55:04.365Z,5.3
2022-11-16T12:55:44.930Z,5.7
2022-11-16T12:56:50.904Z,4.4
2022-11-16T12:57:48.424Z,4.2
2022-11-16T12:58:52.861Z,4.8
2022-11-16T12:59:44.914Z,5.2
2022-11-16T13:00:47.988Z,5.1
2022-11-16T13:01:40.270Z,5.0
2022-11-16T13:02:39.673Z,5.0
2022-11-16T13:03:37.474Z,5.5
2022-11-16T13:04:38.198Z,3.5
2022-11-16T13:05:47.928Z,3.8
2022-11-16T13:06:37.705Z,5.0
2022-11-16T13:07:42.482Z,4.4
2022-11-16T13:08:45.428Z,4.7
2022-11-16T13:09:39.711Z,3.4
2022-11-16T13:10:35.526Z,4.5
2022-11-16T13:11:41.424Z,4.9
2022-11-16T13:12:35.499Z,4.7
2022-11-16T13:13:36.965Z,4.5
2022-11-16T13:14:36.998Z,3.4
2022-11-16T13:15:36.542Z,4.0
2022-11-16T13:16:34.814Z,4.5
2022-11-16T13:17:36.322Z,4.5
2022-11-16T13:18:36.809Z,4.5
2022-11-16T13:19:38.921Z,5.2
2022-11-16T13:20:47.529Z,5.7
2022-11-16T13:21:39.689Z,6.0
2022-11-16T13:22:36.544Z,7.3
2022-11-16T13:23:41.413Z,6.4
2022-11-16T13:24:39.531Z,5.2
2022-11-16T13:25:44.926Z,5.1
2022-11-16T13:26:44.934Z,4.1
2022-11-16T13:27:41.867Z,4.7
2022-11-16T13:28:51.438Z,4.6
2022-11-16T13:29:52.862Z,5.1
2022-11-16T13:30:47.923Z,4.5
2022-11-16T13:31:39.186Z,5.0
2022-11-16T13:32:38.983Z,4.9
2022-11-16T13:33:50.981Z,4.7
2022-11-16T13:34:36.740Z,5.7
2022-11-16T13:35:37.455Z,4.8
2022-11-16T13:36:43.894Z,4.6
2022-11-16T13:37:41.423Z,4.9
2022-11-16T13:38:49.604Z,4.5
2022-11-16T13:39:52.361Z,3.7
2022-11-16T13:40:34.375Z,4.1
2022-11-16T13:41:35.760Z,5.1
2022-11-16T13:42:41.422Z,3.6
2022-11-16T13:43:34.664Z,3.4
2022-11-16T13:44:34.685Z,4.5
2022-11-16T13:45:39.896Z,4.5